Soldotna, AK

6:02 AM AKST on February 06, 2016 (GMT -0900)
Soldotna

Weather History for PASX - March, 2013

Change the Weather History Date:

Thursday, March 14, 2013

  Actual Average Record
Temperature  
Mean Temperature 18 °F -  
Max Temperature 21 °F 32 °F 48 °F (1983)
Min Temperature 14 °F 11 °F -27 °F (1961)
Degree Days  
Heating Degree Days 48    
Moisture  
Dew Point 9 °F    
Average Humidity 68    
Maximum Humidity 79    
Minimum Humidity 42    
Precipitation  
Precipitation 0.00 in - - ()
Sea Level Pressure  
Sea Level Pressure 29.81 in    
Wind  
Wind Speed 9 mph (NE)    
Max Wind Speed 14 mph    
Max Gust Speed 22 mph    
Visibility 8 miles    
Events      
Averages and records for this station are not official NWS values.
T = Trace of Precipitation, MM = Missing Value Source: NWS Daily Summary

Daily Weather History Graph

Daily Weather History Graph

Search for Another Location

Airport or City:

Trip Planner

Search our weather history database for the weather conditions in past years. The results will help you decide how hot, cold, wet, or windy it might be!

Date:

Astronomy

Mar. 14, 2013 Rise Set
Actual Time 8:22 AM AKDT 8:05 PM AKDT
Civil Twilight 7:40 AM AKDT 8:47 PM AKDT
Nautical Twilight 6:50 AM AKDT 9:37 PM AKDT
Astronomical Twilight 5:58 AM AKDT 10:30 PM AKDT
Moon 8:45 AM AKDT (3/14) No Moon Set
Length of Visible Light 13h 06m
Length of Day
11h 42m
Waxing Crescent, 10% of the Moon is Illuminated
Mar 14
Waxing Crescent
Mar 19
First Quarter
Mar 27
Full
Apr 2
Last Quarter
Apr 10
New

Hourly Weather History & Observations

Time (AKDT) Temp. Windchill Dew Point Humidity Pressure Visibility Wind Dir Wind Speed Gust Speed Precip Events Conditions
12:16 AM 21.2 °F 8.9 °F 1.4 °F 42% 29.77 in 10.0 mi NNE 12.7 mph 18.4 mph N/A   Overcast
12:36 AM 21.2 °F 11.7 °F 1.4 °F 42% 29.77 in 10.0 mi NNE 8.1 mph 16.1 mph N/A   Overcast
12:56 AM 21.2 °F 10.9 °F 1.4 °F 42% 29.77 in 10.0 mi NNE 9.2 mph 16.1 mph N/A   Overcast
1:16 AM 21.2 °F 12.6 °F 1.4 °F 42% 29.77 in 10.0 mi North 6.9 mph 18.4 mph N/A   Overcast
1:36 AM 21.2 °F 9.5 °F 1.4 °F 42% 29.77 in 10.0 mi North 11.5 mph 17.3 mph N/A   Overcast
1:56 AM 19.4 °F 6.0 °F 3.2 °F 49% 29.77 in 10.0 mi NNE 13.8 mph 17.3 mph N/A   Overcast
2:16 AM 19.4 °F 8.6 °F 3.2 °F 49% 29.77 in 10.0 mi NNE 9.2 mph 18.4 mph N/A   Overcast
2:36 AM 19.4 °F 8.6 °F 3.2 °F 49% 29.77 in 7.0 mi NNE 9.2 mph - N/A   Overcast
2:56 AM 17.6 °F 5.0 °F 6.8 °F 63% 29.77 in 5.0 mi NNE 11.5 mph - N/A   Overcast
3:16 AM 17.6 °F 7.3 °F 8.6 °F 68% 29.76 in 3.0 mi NNE 8.1 mph - N/A   Overcast
3:36 AM 17.6 °F 7.3 °F 10.4 °F 73% 29.76 in 3.0 mi NNE 8.1 mph - N/A   Overcast
3:56 AM 15.8 °F 8.6 °F 10.4 °F 79% 29.76 in 3.0 mi NE 4.6 mph - N/A   Overcast
4:16 AM 15.8 °F 4.2 °F 10.4 °F 79% 29.76 in 2.5 mi NE 9.2 mph - N/A   Overcast
4:36 AM 15.8 °F 7.2 °F 10.4 °F 79% 29.76 in 2.5 mi NE 5.8 mph - N/A   Overcast
4:56 AM 15.8 °F 4.2 °F 10.4 °F 79% 29.76 in 2.5 mi NE 9.2 mph - N/A   Overcast
5:16 AM 15.8 °F 6.1 °F 8.6 °F 73% 29.76 in 7.0 mi NE 6.9 mph - N/A   Mostly Cloudy
5:36 AM 15.8 °F 5.1 °F 8.6 °F 73% 29.76 in 10.0 mi NE 8.1 mph - N/A   Mostly Cloudy
5:56 AM 15.8 °F 5.1 °F 8.6 °F 73% 29.76 in 3.0 mi NE 8.1 mph - N/A   Overcast
6:16 AM 14.0 °F 3.9 °F 8.6 °F 79% 29.76 in 3.0 mi NE 6.9 mph - N/A   Overcast
6:36 AM 14.0 °F 5.1 °F 8.6 °F 79% 29.76 in 8.0 mi NE 5.8 mph - N/A   Overcast
6:56 AM 14.0 °F 2.9 °F 8.6 °F 79% 29.76 in 10.0 mi NE 8.1 mph - N/A   Overcast
7:16 AM 15.8 °F 4.2 °F 8.6 °F 73% 29.76 in 10.0 mi NE 9.2 mph - N/A   Overcast
7:36 AM 15.8 °F 5.1 °F 8.6 °F 73% 29.76 in 10.0 mi NE 8.1 mph - N/A   Overcast
7:56 AM 15.8 °F 4.2 °F 8.6 °F 73% 29.77 in 2.0 mi NE 9.2 mph - N/A   Overcast
8:16 AM 14.0 °F 5.1 °F 8.6 °F 79% 29.77 in 0.8 mi NNE 5.8 mph - N/A   Overcast
8:36 AM 14.0 °F 3.9 °F 8.6 °F 79% 29.78 in 1.8 mi NNE 6.9 mph - N/A   Overcast
8:56 AM 14.0 °F 5.1 °F 8.6 °F 79% 29.78 in 3.0 mi NE 5.8 mph - N/A   Overcast
9:16 AM 14.0 °F 2.0 °F 8.6 °F 79% 29.79 in 5.0 mi NE 9.2 mph - N/A   Overcast
9:36 AM 14.0 °F 2.9 °F 8.6 °F 79% 29.79 in 5.0 mi NNE 8.1 mph - N/A   Mostly Cloudy
9:56 AM 14.0 °F 2.9 °F 8.6 °F 79% 29.80 in 1.8 mi NE 8.1 mph - N/A   Overcast
10:16 AM 15.8 °F 7.2 °F 8.6 °F 73% 29.80 in 6.0 mi NE 5.8 mph - N/A   Overcast
10:36 AM 15.8 °F 6.1 °F 8.6 °F 73% 29.81 in 10.0 mi NE 6.9 mph - N/A   Overcast
10:56 AM 15.8 °F 2.1 °F 8.6 °F 73% 29.82 in 9.0 mi NNE 12.7 mph 18.4 mph N/A   Overcast
11:16 AM 15.8 °F 3.4 °F 8.6 °F 73% 29.82 in 3.0 mi NNE 10.4 mph - N/A   Overcast
11:36 AM 15.8 °F 2.1 °F 8.6 °F 73% 29.82 in 7.0 mi NE 12.7 mph 21.9 mph N/A   Overcast
11:56 AM 17.6 °F 6.4 °F 8.6 °F 68% 29.83 in 10.0 mi NNE 9.2 mph - N/A   Overcast
12:16 PM 17.6 °F 7.3 °F 8.6 °F 68% 29.83 in 10.0 mi NE 8.1 mph - N/A   Overcast
12:36 PM 17.6 °F 5.0 °F 8.6 °F 68% 29.84 in 7.0 mi NNE 11.5 mph 18.4 mph N/A   Overcast
12:56 PM 17.6 °F 4.3 °F 8.6 °F 68% 29.85 in 2.0 mi NE 12.7 mph 17.3 mph N/A   Overcast
1:16 PM 17.6 °F 5.7 °F 8.6 °F 68% 29.86 in 3.0 mi NE 10.4 mph - N/A   Overcast
1:36 PM 17.6 °F 7.3 °F 10.4 °F 73% 29.85 in 10.0 mi NE 8.1 mph - N/A   Overcast
1:56 PM 19.4 °F 7.9 °F 8.6 °F 63% 29.86 in 10.0 mi NE 10.4 mph - N/A   Overcast
2:16 PM 19.4 °F 8.6 °F 8.6 °F 63% 29.86 in 10.0 mi NNE 9.2 mph - N/A   Overcast
2:36 PM 19.4 °F 8.6 °F 8.6 °F 63% 29.86 in 10.0 mi NE 9.2 mph 16.1 mph N/A   Overcast
2:56 PM 19.4 °F 10.4 °F 10.4 °F 68% 29.86 in 10.0 mi NNE 6.9 mph - N/A   Overcast
3:16 PM 21.2 °F 10.9 °F 10.4 °F 63% 29.86 in 10.0 mi NE 9.2 mph - N/A   Overcast
3:36 PM 21.2 °F 10.9 °F 10.4 °F 63% 29.86 in 10.0 mi NNE 9.2 mph 17.3 mph N/A   Mostly Cloudy
3:56 PM 21.2 °F 9.5 °F 10.4 °F 63% 29.86 in 10.0 mi NE 11.5 mph - N/A   Scattered Clouds
4:16 PM 21.2 °F 9.5 °F 10.4 °F 63% 29.86 in 10.0 mi NNE 11.5 mph 16.1 mph N/A   Clear
4:36 PM 21.2 °F 8.3 °F 8.6 °F 58% 29.86 in 10.0 mi NE 13.8 mph - N/A   Mostly Cloudy
4:56 PM 21.2 °F 8.9 °F 10.4 °F 63% 29.86 in 10.0 mi NE 12.7 mph - N/A   Overcast
5:16 PM 21.2 °F 10.9 °F 12.2 °F 68% 29.86 in 10.0 mi NE 9.2 mph 16.1 mph N/A   Mostly Cloudy
5:36 PM 21.2 °F 10.1 °F 12.2 °F 68% 29.86 in 10.0 mi NNE 10.4 mph - N/A   Mostly Cloudy
5:56 PM 21.2 °F 10.9 °F 12.2 °F 68% 29.86 in 10.0 mi NE 9.2 mph - N/A   Mostly Cloudy
6:16 PM 21.2 °F 11.7 °F 12.2 °F 68% 29.85 in 10.0 mi NE 8.1 mph - N/A   Mostly Cloudy
6:36 PM 21.2 °F 11.7 °F 12.2 °F 68% 29.85 in 10.0 mi NE 8.1 mph - N/A   Overcast
6:56 PM 21.2 °F 9.5 °F 14.0 °F 74% 29.86 in 10.0 mi NE 11.5 mph - N/A   Overcast
7:16 PM 21.2 °F 12.6 °F 12.2 °F 68% 29.85 in 10.0 mi NNE 6.9 mph - N/A   Overcast
7:36 PM 21.2 °F 11.7 °F 12.2 °F 68% 29.85 in 10.0 mi NE 8.1 mph - N/A   Mostly Cloudy
7:56 PM 21.2 °F 11.7 °F 12.2 °F 68% 29.85 in 10.0 mi NE 8.1 mph - N/A   Overcast
8:16 PM 21.2 °F 11.7 °F 14.0 °F 74% 29.85 in 10.0 mi NE 8.1 mph - N/A   Overcast
8:36 PM 21.2 °F 13.6 °F 12.2 °F 68% 29.85 in 10.0 mi NE 5.8 mph - N/A   Scattered Clouds
8:56 PM 21.2 °F 13.6 °F 12.2 °F 68% 29.85 in 10.0 mi ENE 5.8 mph - N/A   Partly Cloudy
9:16 PM 19.4 °F 12.8 °F 12.2 °F 74% 29.85 in 10.0 mi NE 4.6 mph - N/A   Partly Cloudy
9:36 PM 19.4 °F 10.4 °F 10.4 °F 68% 29.85 in 10.0 mi NE 6.9 mph - N/A   Clear
9:56 PM 19.4 °F 10.4 °F 10.4 °F 68% 29.84 in 10.0 mi NE 6.9 mph - N/A   Clear
10:16 PM 19.4 °F 10.4 °F 10.4 °F 68% 29.84 in 10.0 mi ENE 6.9 mph - N/A   Clear
10:36 PM 19.4 °F 12.8 °F 8.6 °F 63% 29.84 in 10.0 mi East 4.6 mph - N/A   Clear
10:56 PM 19.4 °F 12.8 °F 10.4 °F 68% 29.84 in 10.0 mi ENE 4.6 mph - N/A   Clear
11:16 PM 19.4 °F 10.4 °F 10.4 °F 68% 29.84 in 10.0 mi NE 6.9 mph - N/A   Clear
11:36 PM 19.4 °F 10.4 °F 10.4 °F 68% 29.83 in 10.0 mi ENE 6.9 mph - N/A   Clear
11:56 PM 19.4 °F 10.4 °F 8.6 °F 63% 29.83 in 10.0 mi East 6.9 mph - N/A   Clear